sensor_id;sensor_type;location;lat;lon;timestamp;pressure;altitude;pressure_sealevel;temperature;humidity
50380;BME280;37474;59.468;18.040;2023-04-20T00:00:05;103359.47;;;-1.69;91.84
50380;BME280;37474;59.468;18.040;2023-04-20T00:02:39;103350.47;;;-2.01;92.33
50380;BME280;37474;59.468;18.040;2023-04-20T00:05:08;103351.91;;;-2.08;93.01
50380;BME280;37474;59.468;18.040;2023-04-20T00:07:37;103337.97;;;-1.97;93.83
50380;BME280;37474;59.468;18.040;2023-04-20T00:10:08;103351.31;;;-1.81;93.53
50380;BME280;37474;59.468;18.040;2023-04-20T00:12:36;103353.78;;;-2.04;94.73
50380;BME280;37474;59.468;18.040;2023-04-20T00:15:05;103357.53;;;-2.15;95.75
50380;BME280;37474;59.468;18.040;2023-04-20T00:17:37;103345.63;;;-2.35;97.94
50380;BME280;37474;59.468;18.040;2023-04-20T00:20:06;103345.56;;;-2.37;98.92
50380;BME280;37474;59.468;18.040;2023-04-20T00:22:35;103339.16;;;-2.48;98.68
50380;BME280;37474;59.468;18.040;2023-04-20T00:25:06;103338.78;;;-2.17;100.00
50380;BME280;37474;59.468;18.040;2023-04-20T00:27:35;103328.91;;;-2.30;100.00
50380;BME280;37474;59.468;18.040;2023-04-20T00:30:03;103342.03;;;-2.21;99.87
50380;BME280;37474;59.468;18.040;2023-04-20T00:32:31;103345.38;;;-2.42;100.00
50380;BME280;37474;59.468;18.040;2023-04-20T00:35:05;103333.34;;;-1.86;99.18
50380;BME280;37474;59.468;18.040;2023-04-20T00:37:33;103330.94;;;-2.02;98.28
50380;BME280;37474;59.468;18.040;2023-04-20T00:40:01;103326.44;;;-2.09;99.67
50380;BME280;37474;59.468;18.040;2023-04-20T00:42:29;103339.34;;;-2.24;100.00
50380;BME280;37474;59.468;18.040;2023-04-20T00:44:57;103332.44;;;-2.46;100.00
50380;BME280;37474;59.468;18.040;2023-04-20T00:47:25;103329.22;;;-2.61;100.00
50380;BME280;37474;59.468;18.040;2023-04-20T00:49:54;103333.53;;;-2.60;100.00
50380;BME280;37474;59.468;18.040;2023-04-20T00:52:23;103336.78;;;-2.63;100.00
50380;BME280;37474;59.468;18.040;2023-04-20T00:54:51;103329.50;;;-2.75;100.00
50380;BME280;37474;59.468;18.040;2023-04-20T00:57:21;103323.66;;;-2.72;100.00
50380;BME280;37474;59.468;18.040;2023-04-20T00:59:49;103244.97;;;-3.29;100.00
50380;BME280;37474;59.468;18.040;2023-04-20T01:02:18;103322.81;;;-2.73;100.00
50380;BME280;37474;59.468;18.040;2023-04-20T01:04:46;103279.16;;;-2.83;100.00
50380;BME280;37474;59.468;18.040;2023-04-20T01:07:16;103297.31;;;-2.76;100.00
50380;BME280;37474;59.468;18.040;2023-04-20T01:09:45;103325.22;;;-2.56;100.00
50380;BME280;37474;59.468;18.040;2023-04-20T01:12:13;103320.69;;;-2.63;100.00
50380;BME280;37474;59.468;18.040;2023-04-20T01:14:41;103319.00;;;-2.82;100.00
50380;BME280;37474;59.468;18.040;2023-04-20T01:17:09;103320.34;;;-2.71;100.00
50380;BME280;37474;59.468;18.040;2023-04-20T01:19:37;103319.16;;;-2.60;100.00
50380;BME280;37474;59.468;18.040;2023-04-20T01:22:05;103312.19;;;-2.64;100.00
50380;BME280;37474;59.468;18.040;2023-04-20T01:24:34;103316.34;;;-2.66;100.00
50380;BME280;37474;59.468;18.040;2023-04-20T01:27:03;103319.78;;;-2.83;100.00
50380;BME280;37474;59.468;18.040;2023-04-20T01:29:34;103313.88;;;-3.02;100.00
50380;BME280;37474;59.468;18.040;2023-04-20T01:32:02;103323.91;;;-3.05;100.00
50380;BME280;37474;59.468;18.040;2023-04-20T01:34:31;103318.91;;;-3.03;100.00
50380;BME280;37474;59.468;18.040;2023-04-20T01:36:59;103313.38;;;-3.12;100.00
50380;BME280;37474;59.468;18.040;2023-04-20T01:39:27;103299.31;;;-3.06;100.00
50380;BME280;37474;59.468;18.040;2023-04-20T01:41:58;103307.81;;;-3.05;100.00
50380;BME280;37474;59.468;18.040;2023-04-20T01:44:28;103315.66;;;-2.81;100.00
50380;BME280;37474;59.468;18.040;2023-04-20T01:46:56;103298.81;;;-2.99;100.00
50380;BME280;37474;59.468;18.040;2023-04-20T01:49:27;103306.31;;;-3.00;100.00
50380;BME280;37474;59.468;18.040;2023-04-20T01:51:55;103315.50;;;-3.04;100.00
50380;BME280;37474;59.468;18.040;2023-04-20T01:54:23;103319.81;;;-3.01;100.00
50380;BME280;37474;59.468;18.040;2023-04-20T01:56:51;103316.84;;;-2.93;100.00
50380;BME280;37474;59.468;18.040;2023-04-20T01:59:21;103315.94;;;-3.12;100.00
50380;BME280;37474;59.468;18.040;2023-04-20T02:01:49;103266.47;;;-3.58;100.00
50380;BME280;37474;59.468;18.040;2023-04-20T02:04:21;103299.56;;;-3.19;100.00
50380;BME280;37474;59.468;18.040;2023-04-20T02:06:49;103303.19;;;-2.95;100.00
50380;BME280;37474;59.468;18.040;2023-04-20T02:09:20;103304.75;;;-2.98;100.00
50380;BME280;37474;59.468;18.040;2023-04-20T02:11:48;103303.09;;;-2.98;100.00
50380;BME280;37474;59.468;18.040;2023-04-20T02:14:16;103294.91;;;-3.28;100.00
50380;BME280;37474;59.468;18.040;2023-04-20T02:16:45;103292.47;;;-3.26;100.00
50380;BME280;37474;59.468;18.040;2023-04-20T02:19:13;103300.56;;;-3.33;100.00
50380;BME280;37474;59.468;18.040;2023-04-20T02:21:42;103245.25;;;-3.60;100.00
50380;BME280;37474;59.468;18.040;2023-04-20T02:24:11;103294.63;;;-3.34;100.00
50380;BME280;37474;59.468;18.040;2023-04-20T02:26:40;103296.75;;;-3.43;100.00
50380;BME280;37474;59.468;18.040;2023-04-20T02:29:08;103291.16;;;-3.36;100.00
50380;BME280;37474;59.468;18.040;2023-04-20T02:31:36;103295.09;;;-3.42;100.00
50380;BME280;37474;59.468;18.040;2023-04-20T02:34:05;103232.94;;;-3.70;100.00
50380;BME280;37474;59.468;18.040;2023-04-20T02:36:36;103295.03;;;-3.44;100.00
50380;BME280;37474;59.468;18.040;2023-04-20T02:39:09;103297.34;;;-3.49;100.00
50380;BME280;37474;59.468;18.040;2023-04-20T02:41:37;103286.91;;;-3.55;100.00
50380;BME280;37474;59.468;18.040;2023-04-20T02:44:06;103296.25;;;-3.54;100.00
50380;BME280;37474;59.468;18.040;2023-04-20T02:46:34;103287.84;;;-3.53;100.00
50380;BME280;37474;59.468;18.040;2023-04-20T02:49:06;103293.56;;;-3.57;100.00
50380;BME280;37474;59.468;18.040;2023-04-20T02:51:34;103288.56;;;-3.37;100.00
50380;BME280;37474;59.468;18.040;2023-04-20T02:54:03;103286.91;;;-3.37;100.00
50380;BME280;37474;59.468;18.040;2023-04-20T02:56:31;103284.78;;;-3.46;100.00
50380;BME280;37474;59.468;18.040;2023-04-20T02:58:59;103287.56;;;-3.59;100.00
50380;BME280;37474;59.468;18.040;2023-04-20T03:01:27;103284.50;;;-3.69;100.00
50380;BME280;37474;59.468;18.040;2023-04-20T03:03:56;103267.19;;;-3.60;100.00
50380;BME280;37474;59.468;18.040;2023-04-20T03:06:25;103287.38;;;-3.62;100.00
50380;BME280;37474;59.468;18.040;2023-04-20T03:08:54;103280.47;;;-3.66;100.00
50380;BME280;37474;59.468;18.040;2023-04-20T03:11:22;103282.19;;;-3.47;100.00
50380;BME280;37474;59.468;18.040;2023-04-20T03:13:56;103285.25;;;-3.54;100.00
50380;BME280;37474;59.468;18.040;2023-04-20T03:16:24;103286.09;;;-3.54;100.00
50380;BME280;37474;59.468;18.040;2023-04-20T03:18:52;103285.44;;;-3.67;100.00
50380;BME280;37474;59.468;18.040;2023-04-20T03:21:23;103281.66;;;-3.76;100.00
50380;BME280;37474;59.468;18.040;2023-04-20T03:23:52;103275.63;;;-3.78;100.00
50380;BME280;37474;59.468;18.040;2023-04-20T03:26:20;103281.22;;;-3.67;100.00
50380;BME280;37474;59.468;18.040;2023-04-20T03:28:52;103274.41;;;-3.50;100.00
50380;BME280;37474;59.468;18.040;2023-04-20T03:31:20;103240.31;;;-3.75;100.00
50380;BME280;37474;59.468;18.040;2023-04-20T03:33:48;103275.50;;;-3.45;100.00
50380;BME280;37474;59.468;18.040;2023-04-20T03:36:16;103279.59;;;-3.49;100.00
50380;BME280;37474;59.468;18.040;2023-04-20T03:38:44;103275.69;;;-3.60;100.00
50380;BME280;37474;59.468;18.040;2023-04-20T03:41:14;103273.25;;;-3.57;100.00
50380;BME280;37474;59.468;18.040;2023-04-20T03:43:42;103275.59;;;-3.43;100.00
50380;BME280;37474;59.468;18.040;2023-04-20T03:46:10;103280.44;;;-3.30;100.00
50380;BME280;37474;59.468;18.040;2023-04-20T03:48:40;103280.97;;;-3.37;100.00
50380;BME280;37474;59.468;18.040;2023-04-20T03:51:08;103266.22;;;-3.45;100.00
50380;BME280;37474;59.468;18.040;2023-04-20T03:53:36;103273.34;;;-3.37;100.00
50380;BME280;37474;59.468;18.040;2023-04-20T03:56:05;103267.91;;;-3.27;100.00
50380;BME280;37474;59.468;18.040;2023-04-20T03:58:35;103264.47;;;-3.28;100.00
50380;BME280;37474;59.468;18.040;2023-04-20T04:01:04;103268.94;;;-3.22;100.00
50380;BME280;37474;59.468;18.040;2023-04-20T04:03:34;103272.19;;;-3.26;100.00
50380;BME280;37474;59.468;18.040;2023-04-20T04:06:03;103279.44;;;-2.97;100.00
50380;BME280;37474;59.468;18.040;2023-04-20T04:08:32;103280.03;;;-3.02;100.00
50380;BME280;37474;59.468;18.040;2023-04-20T04:11:00;103280.03;;;-3.02;100.00
50380;BME280;37474;59.468;18.040;2023-04-20T04:13:28;103276.78;;;-2.80;100.00
50380;BME280;37474;59.468;18.040;2023-04-20T04:16:01;103278.31;;;-2.45;100.00
50380;BME280;37474;59.468;18.040;2023-04-20T04:18:30;103226.81;;;-2.81;100.00
50380;BME280;37474;59.468;18.040;2023-04-20T04:20:58;103276.03;;;-2.39;100.00
50380;BME280;37474;59.468;18.040;2023-04-20T04:23:26;103281.44;;;-2.31;100.00
50380;BME280;37474;59.468;18.040;2023-04-20T04:25:54;103282.63;;;-2.23;98.62
50380;BME280;37474;59.468;18.040;2023-04-20T04:28:22;103281.81;;;-2.22;98.98
50380;BME280;37474;59.468;18.040;2023-04-20T04:30:52;103273.72;;;-2.14;99.41
50380;BME280;37474;59.468;18.040;2023-04-20T04:33:22;103282.63;;;-1.83;97.46
50380;BME280;37474;59.468;18.040;2023-04-20T04:35:50;103277.88;;;-1.74;98.34
50380;BME280;37474;59.468;18.040;2023-04-20T04:38:19;103276.75;;;-1.60;96.79
50380;BME280;37474;59.468;18.040;2023-04-20T04:40:48;103289.28;;;-1.43;96.40
50380;BME280;37474;59.468;18.040;2023-04-20T04:43:18;103283.09;;;-1.05;94.13
50380;BME280;37474;59.468;18.040;2023-04-20T04:45:46;103290.50;;;-0.89;99.40
50380;BME280;37474;59.468;18.040;2023-04-20T04:48:15;103261.63;;;-0.65;100.00
50380;BME280;37474;59.468;18.040;2023-04-20T04:50:45;103280.63;;;-0.32;96.70
50380;BME280;37474;59.468;18.040;2023-04-20T04:53:14;103281.28;;;-0.37;96.00
50380;BME280;37474;59.468;18.040;2023-04-20T04:55:42;103276.34;;;-0.07;96.30
50380;BME280;37474;59.468;18.040;2023-04-20T04:58:10;103286.34;;;0.12;95.27
50380;BME280;37474;59.468;18.040;2023-04-20T05:00:38;103282.53;;;0.26;92.73
50380;BME280;37474;59.468;18.040;2023-04-20T05:03:06;103222.78;;;0.75;92.29
50380;BME280;37474;59.468;18.040;2023-04-20T05:05:34;103272.41;;;2.85;81.09
50380;BME280;37474;59.468;18.040;2023-04-20T05:08:04;103275.94;;;3.80;74.10
50380;BME280;37474;59.468;18.040;2023-04-20T05:10:32;103274.69;;;4.64;71.21
50380;BME280;37474;59.468;18.040;2023-04-20T05:13:00;103274.72;;;5.37;66.54
50380;BME280;37474;59.468;18.040;2023-04-20T05:15:28;103279.09;;;5.44;64.88
50380;BME280;37474;59.468;18.040;2023-04-20T05:17:56;103271.53;;;5.56;64.47
50380;BME280;37474;59.468;18.040;2023-04-20T05:20:24;103268.09;;;5.55;64.51
50380;BME280;37474;59.468;18.040;2023-04-20T05:22:53;103270.34;;;4.60;68.07
50380;BME280;37474;59.468;18.040;2023-04-20T05:25:25;103269.00;;;4.27;70.34
50380;BME280;37474;59.468;18.040;2023-04-20T05:27:53;103263.22;;;3.86;72.13
50380;BME280;37474;59.468;18.040;2023-04-20T05:30:21;103270.72;;;3.75;73.53
50380;BME280;37474;59.468;18.040;2023-04-20T05:32:49;103277.25;;;3.58;74.26
50380;BME280;37474;59.468;18.040;2023-04-20T05:35:18;103276.22;;;3.48;74.74
50380;BME280;37474;59.468;18.040;2023-04-20T05:37:47;103269.34;;;3.46;74.61
50380;BME280;37474;59.468;18.040;2023-04-20T05:40:15;103263.59;;;3.59;73.38
50380;BME280;37474;59.468;18.040;2023-04-20T05:42:44;103269.84;;;3.73;73.59
50380;BME280;37474;59.468;18.040;2023-04-20T05:45:12;103258.94;;;3.86;74.23
50380;BME280;37474;59.468;18.040;2023-04-20T05:47:40;103256.47;;;3.91;72.63
50380;BME280;37474;59.468;18.040;2023-04-20T05:50:09;103259.03;;;3.92;71.81
50380;BME280;37474;59.468;18.040;2023-04-20T05:52:37;103224.84;;;3.93;71.43
50380;BME280;37474;59.468;18.040;2023-04-20T05:55:05;103251.63;;;4.09;71.52
50380;BME280;37474;59.468;18.040;2023-04-20T05:57:34;103252.00;;;4.34;70.56
50380;BME280;37474;59.468;18.040;2023-04-20T06:00:11;103209.06;;;4.27;67.92
50380;BME280;37474;59.468;18.040;2023-04-20T06:02:39;103249.06;;;4.70;68.80
50380;BME280;37474;59.468;18.040;2023-04-20T06:05:08;103248.28;;;4.74;68.05
50380;BME280;37474;59.468;18.040;2023-04-20T06:07:37;103208.66;;;4.58;67.06
50380;BME280;37474;59.468;18.040;2023-04-20T06:10:07;103254.63;;;5.03;64.24
50380;BME280;37474;59.468;18.040;2023-04-20T06:12:35;103247.06;;;5.16;63.30
50380;BME280;37474;59.468;18.040;2023-04-20T06:15:04;103222.97;;;5.06;63.13
50380;BME280;37474;59.468;18.040;2023-04-20T06:17:35;103251.81;;;5.60;62.44
50380;BME280;37474;59.468;18.040;2023-04-20T06:20:07;103256.19;;;5.70;62.39
50380;BME280;37474;59.468;18.040;2023-04-20T06:22:35;103258.06;;;5.83;61.52
50380;BME280;37474;59.468;18.040;2023-04-20T06:25:06;103251.69;;;5.47;61.43
50380;BME280;37474;59.468;18.040;2023-04-20T06:27:35;103252.00;;;5.81;60.43
50380;BME280;37474;59.468;18.040;2023-04-20T06:30:03;103254.91;;;6.18;60.08
50380;BME280;37474;59.468;18.040;2023-04-20T06:32:32;103251.59;;;6.37;59.93
50380;BME280;37474;59.468;18.040;2023-04-20T06:35:01;103241.88;;;5.98;61.06
50380;BME280;37474;59.468;18.040;2023-04-20T06:37:29;103248.28;;;6.50;60.65
50380;BME280;37474;59.468;18.040;2023-04-20T06:39:57;103246.72;;;6.83;58.38
50380;BME280;37474;59.468;18.040;2023-04-20T06:42:25;103249.22;;;6.69;58.64
50380;BME280;37474;59.468;18.040;2023-04-20T06:44:53;103252.69;;;6.77;56.99
50380;BME280;37474;59.468;18.040;2023-04-20T06:47:22;103245.91;;;6.96;58.32
50380;BME280;37474;59.468;18.040;2023-04-20T06:49:57;103250.25;;;7.15;56.03
50380;BME280;37474;59.468;18.040;2023-04-20T06:52:26;103246.06;;;7.63;56.51
50380;BME280;37474;59.468;18.040;2023-04-20T06:54:57;103243.47;;;7.76;55.69
50380;BME280;37474;59.468;18.040;2023-04-20T06:57:25;103246.94;;;7.84;53.24
50380;BME280;37474;59.468;18.040;2023-04-20T06:59:53;103241.75;;;7.99;53.87
50380;BME280;37474;59.468;18.040;2023-04-20T07:02:21;103251.22;;;8.17;54.64
50380;BME280;37474;59.468;18.040;2023-04-20T07:04:49;103244.31;;;8.16;52.28
50380;BME280;37474;59.468;18.040;2023-04-20T07:07:18;103247.75;;;8.21;52.55
50380;BME280;37474;59.468;18.040;2023-04-20T07:09:47;103251.19;;;8.32;52.53
50380;BME280;37474;59.468;18.040;2023-04-20T07:12:15;103245.06;;;8.81;51.56
50380;BME280;37474;59.468;18.040;2023-04-20T07:14:45;103247.47;;;9.22;51.72
50380;BME280;37474;59.468;18.040;2023-04-20T07:17:13;103242.91;;;9.55;50.92
50380;BME280;37474;59.468;18.040;2023-04-20T07:19:41;103244.66;;;9.54;49.52
50380;BME280;37474;59.468;18.040;2023-04-20T07:22:09;103242.19;;;9.37;49.98
50380;BME280;37474;59.468;18.040;2023-04-20T07:24:37;103248.16;;;9.47;48.72
50380;BME280;37474;59.468;18.040;2023-04-20T07:27:07;103239.59;;;9.40;46.76
50380;BME280;37474;59.468;18.040;2023-04-20T07:29:34;103237.03;;;9.34;47.64
50380;BME280;37474;59.468;18.040;2023-04-20T07:32:03;103242.06;;;9.57;45.95
50380;BME280;37474;59.468;18.040;2023-04-20T07:34:31;103243.56;;;9.86;46.07
50380;BME280;37474;59.468;18.040;2023-04-20T07:36:59;103230.63;;;9.81;45.73
50380;BME280;37474;59.468;18.040;2023-04-20T07:39:27;103236.56;;;9.97;44.95
50380;BME280;37474;59.468;18.040;2023-04-20T07:41:56;103233.03;;;10.04;44.61
50380;BME280;37474;59.468;18.040;2023-04-20T07:44:25;103239.72;;;10.29;43.14
50380;BME280;37474;59.468;18.040;2023-04-20T07:46:53;103238.72;;;10.43;44.38
50380;BME280;37474;59.468;18.040;2023-04-20T07:49:23;103233.38;;;10.58;42.15
50380;BME280;37474;59.468;18.040;2023-04-20T07:51:51;103234.31;;;10.51;41.28
50380;BME280;37474;59.468;18.040;2023-04-20T07:54:28;103233.47;;;10.49;42.10
50380;BME280;37474;59.468;18.040;2023-04-20T07:56:58;103227.34;;;10.56;41.96
50380;BME280;37474;59.468;18.040;2023-04-20T07:59:28;103227.84;;;10.86;41.61
50380;BME280;37474;59.468;18.040;2023-04-20T08:01:58;103232.06;;;10.93;39.99
50380;BME280;37474;59.468;18.040;2023-04-20T08:04:27;103227.94;;;10.79;40.41
50380;BME280;37474;59.468;18.040;2023-04-20T08:06:55;103227.78;;;10.90;40.21
50380;BME280;37474;59.468;18.040;2023-04-20T08:09:23;103226.09;;;10.86;41.19
50380;BME280;37474;59.468;18.040;2023-04-20T08:11:52;103225.88;;;11.03;39.39
50380;BME280;37474;59.468;18.040;2023-04-20T08:14:20;103230.34;;;10.92;39.27
50380;BME280;37474;59.468;18.040;2023-04-20T08:16:49;103221.25;;;11.25;39.31
50380;BME280;37474;59.468;18.040;2023-04-20T08:19:19;103221.91;;;11.39;38.86
50380;BME280;37474;59.468;18.040;2023-04-20T08:21:50;103217.06;;;11.70;38.88
50380;BME280;37474;59.468;18.040;2023-04-20T08:24:18;103211.94;;;11.66;38.76
50380;BME280;37474;59.468;18.040;2023-04-20T08:26:46;103208.38;;;11.71;40.98
50380;BME280;37474;59.468;18.040;2023-04-20T08:29:15;103210.16;;;11.69;39.29
50380;BME280;37474;59.468;18.040;2023-04-20T08:31:45;103217.78;;;11.83;39.40
50380;BME280;37474;59.468;18.040;2023-04-20T08:34:16;103199.91;;;11.61;38.88
50380;BME280;37474;59.468;18.040;2023-04-20T08:36:45;103208.06;;;11.94;39.95
50380;BME280;37474;59.468;18.040;2023-04-20T08:39:17;103201.25;;;12.33;38.93
50380;BME280;37474;59.468;18.040;2023-04-20T08:41:45;103207.19;;;12.40;39.10
50380;BME280;37474;59.468;18.040;2023-04-20T08:44:14;103202.59;;;12.53;38.10
50380;BME280;37474;59.468;18.040;2023-04-20T08:46:44;103206.50;;;12.30;37.63
50380;BME280;37474;59.468;18.040;2023-04-20T08:49:14;103211.38;;;12.47;37.81
50380;BME280;37474;59.468;18.040;2023-04-20T08:51:46;103205.44;;;12.82;36.92
50380;BME280;37474;59.468;18.040;2023-04-20T08:54:14;103210.81;;;12.75;37.46
50380;BME280;37474;59.468;18.040;2023-04-20T08:56:45;103207.97;;;12.43;37.12
50380;BME280;37474;59.468;18.040;2023-04-20T08:59:13;103205.38;;;12.45;37.55
50380;BME280;37474;59.468;18.040;2023-04-20T09:01:43;103203.94;;;12.72;37.41
50380;BME280;37474;59.468;18.040;2023-04-20T09:04:16;103199.31;;;13.25;37.04
50380;BME280;37474;59.468;18.040;2023-04-20T09:06:48;103176.41;;;13.01;37.04
50380;BME280;37474;59.468;18.040;2023-04-20T09:09:17;103193.09;;;13.31;37.78
50380;BME280;37474;59.468;18.040;2023-04-20T09:11:46;103183.91;;;13.52;35.85
50380;BME280;37474;59.468;18.040;2023-04-20T09:14:15;103197.56;;;13.27;35.43
50380;BME280;37474;59.468;18.040;2023-04-20T09:16:50;103195.44;;;13.41;35.01
50380;BME280;37474;59.468;18.040;2023-04-20T09:19:22;103200.75;;;13.38;33.91
50380;BME280;37474;59.468;18.040;2023-04-20T09:21:54;103198.09;;;13.40;34.12
50380;BME280;37474;59.468;18.040;2023-04-20T09:24:28;103186.94;;;13.69;35.76
50380;BME280;37474;59.468;18.040;2023-04-20T09:26:57;103189.38;;;13.41;31.39
50380;BME280;37474;59.468;18.040;2023-04-20T09:29:25;103184.56;;;13.60;31.93
50380;BME280;37474;59.468;18.040;2023-04-20T09:31:53;103185.16;;;13.71;31.04
50380;BME280;37474;59.468;18.040;2023-04-20T09:34:23;103185.22;;;14.02;30.93
50380;BME280;37474;59.468;18.040;2023-04-20T09:36:53;103174.88;;;14.30;31.83
50380;BME280;37474;59.468;18.040;2023-04-20T09:39:24;103168.84;;;14.28;30.86
50380;BME280;37474;59.468;18.040;2023-04-20T09:41:57;103176.38;;;14.08;30.41
50380;BME280;37474;59.468;18.040;2023-04-20T09:44:31;103167.72;;;14.38;30.32
50380;BME280;37474;59.468;18.040;2023-04-20T09:46:59;103169.88;;;14.53;30.60
50380;BME280;37474;59.468;18.040;2023-04-20T09:49:27;103168.31;;;14.46;30.47
50380;BME280;37474;59.468;18.040;2023-04-20T09:51:59;103160.03;;;14.91;33.30
50380;BME280;37474;59.468;18.040;2023-04-20T09:54:28;103160.56;;;15.02;29.86
50380;BME280;37474;59.468;18.040;2023-04-20T09:56:58;103167.38;;;14.50;31.02
50380;BME280;37474;59.468;18.040;2023-04-20T09:59:27;103158.41;;;14.87;29.77
50380;BME280;37474;59.468;18.040;2023-04-20T10:01:57;103165.59;;;14.20;30.49
50380;BME280;37474;59.468;18.040;2023-04-20T10:04:26;103161.16;;;14.55;30.95
50380;BME280;37474;59.468;18.040;2023-04-20T10:06:55;103154.16;;;15.13;28.73
50380;BME280;37474;59.468;18.040;2023-04-20T10:09:30;103156.66;;;15.42;29.39
50380;BME280;37474;59.468;18.040;2023-04-20T10:12:06;103141.91;;;15.68;29.78
50380;BME280;37474;59.468;18.040;2023-04-20T10:14:35;103141.47;;;15.80;28.50
50380;BME280;37474;59.468;18.040;2023-04-20T10:17:04;103140.94;;;15.17;31.10
50380;BME280;37474;59.468;18.040;2023-04-20T10:19:37;103133.84;;;15.74;29.70
50380;BME280;37474;59.468;18.040;2023-04-20T10:22:06;103132.38;;;15.90;29.38
50380;BME280;37474;59.468;18.040;2023-04-20T10:24:36;103123.66;;;16.38;28.75
50380;BME280;37474;59.468;18.040;2023-04-20T10:27:15;103130.94;;;15.30;29.72
50380;BME280;37474;59.468;18.040;2023-04-20T10:29:43;103122.22;;;15.82;30.28
50380;BME280;37474;59.468;18.040;2023-04-20T10:32:20;103094.19;;;15.35;30.22
50380;BME280;37474;59.468;18.040;2023-04-20T10:34:59;103120.81;;;15.46;30.95
50380;BME280;37474;59.468;18.040;2023-04-20T10:37:28;103118.28;;;15.94;30.60
50380;BME280;37474;59.468;18.040;2023-04-20T10:39:59;103090.78;;;15.57;31.13
50380;BME280;37474;59.468;18.040;2023-04-20T10:42:27;103116.09;;;15.57;31.18
50380;BME280;37474;59.468;18.040;2023-04-20T10:44:56;103101.69;;;15.70;31.52
50380;BME280;37474;59.468;18.040;2023-04-20T10:47:28;103102.31;;;16.02;31.07
50380;BME280;37474;59.468;18.040;2023-04-20T10:50:08;103073.56;;;15.52;31.30
50380;BME280;37474;59.468;18.040;2023-04-20T10:52:38;103102.81;;;15.63;29.62
50380;BME280;37474;59.468;18.040;2023-04-20T10:55:18;103099.72;;;15.25;29.66
50380;BME280;37474;59.468;18.040;2023-04-20T10:57:46;103095.75;;;15.40;29.77
50380;BME280;37474;59.468;18.040;2023-04-20T11:00:15;103085.97;;;15.72;31.30
50380;BME280;37474;59.468;18.040;2023-04-20T11:02:47;103083.25;;;15.98;30.00
50380;BME280;37474;59.468;18.040;2023-04-20T11:05:17;103085.91;;;15.73;30.58
50380;BME280;37474;59.468;18.040;2023-04-20T11:07:47;103072.50;;;15.82;29.27
50380;BME280;37474;59.468;18.040;2023-04-20T11:10:18;103072.78;;;15.98;29.32
50380;BME280;37474;59.468;18.040;2023-04-20T11:12:46;103069.16;;;16.02;30.42
50380;BME280;37474;59.468;18.040;2023-04-20T11:15:14;103061.69;;;16.15;29.32
50380;BME280;37474;59.468;18.040;2023-04-20T11:17:43;103069.53;;;15.92;27.89
50380;BME280;37474;59.468;18.040;2023-04-20T11:20:13;103074.59;;;15.73;30.42
50380;BME280;37474;59.468;18.040;2023-04-20T11:22:43;103059.75;;;16.42;28.65
50380;BME280;37474;59.468;18.040;2023-04-20T11:25:11;103061.22;;;16.73;29.47
50380;BME280;37474;59.468;18.040;2023-04-20T11:27:41;103066.19;;;16.57;28.05
50380;BME280;37474;59.468;18.040;2023-04-20T11:30:09;103033.72;;;16.39;28.03
50380;BME280;37474;59.468;18.040;2023-04-20T11:32:39;103054.75;;;16.14;28.46
50380;BME280;37474;59.468;18.040;2023-04-20T11:35:10;103056.00;;;15.80;27.81
50380;BME280;37474;59.468;18.040;2023-04-20T11:37:45;103056.22;;;15.98;30.33
50380;BME280;37474;59.468;18.040;2023-04-20T11:40:13;103045.94;;;16.17;27.82
50380;BME280;37474;59.468;18.040;2023-04-20T11:42:43;103042.28;;;16.21;28.08
50380;BME280;37474;59.468;18.040;2023-04-20T11:45:12;103034.00;;;16.77;27.84
50380;BME280;37474;59.468;18.040;2023-04-20T11:47:39;103037.19;;;16.61;28.60
50380;BME280;37474;59.468;18.040;2023-04-20T11:50:08;103033.06;;;16.34;28.37
50380;BME280;37474;59.468;18.040;2023-04-20T11:52:37;103023.69;;;16.50;28.15
50380;BME280;37474;59.468;18.040;2023-04-20T11:55:06;103029.16;;;16.66;28.58
50380;BME280;37474;59.468;18.040;2023-04-20T11:57:34;103025.94;;;17.02;26.60
50380;BME280;37474;59.468;18.040;2023-04-20T12:00:04;103023.59;;;16.52;27.99
50380;BME280;37474;59.468;18.040;2023-04-20T12:02:33;103024.44;;;16.08;27.04
50380;BME280;37474;59.468;18.040;2023-04-20T12:05:01;103021.25;;;16.00;27.90
50380;BME280;37474;59.468;18.040;2023-04-20T12:07:30;103022.94;;;16.91;26.67
50380;BME280;37474;59.468;18.040;2023-04-20T12:09:58;103011.41;;;17.35;26.21
50380;BME280;37474;59.468;18.040;2023-04-20T12:12:26;103008.69;;;16.76;25.53
50380;BME280;37474;59.468;18.040;2023-04-20T12:14:54;103011.34;;;16.96;26.19
50380;BME280;37474;59.468;18.040;2023-04-20T12:17:23;103007.47;;;16.84;26.01
50380;BME280;37474;59.468;18.040;2023-04-20T12:19:53;103007.47;;;16.41;26.08
50380;BME280;37474;59.468;18.040;2023-04-20T12:22:21;103006.03;;;16.55;26.92
50380;BME280;37474;59.468;18.040;2023-04-20T12:24:49;103003.22;;;16.38;26.43
50380;BME280;37474;59.468;18.040;2023-04-20T12:27:17;103004.53;;;16.48;24.72
50380;BME280;37474;59.468;18.040;2023-04-20T12:29:48;102999.88;;;16.34;25.17
50380;BME280;37474;59.468;18.040;2023-04-20T12:32:16;102993.28;;;17.10;27.69
50380;BME280;37474;59.468;18.040;2023-04-20T12:34:45;102989.97;;;17.65;25.33
50380;BME280;37474;59.468;18.040;2023-04-20T12:37:13;102994.69;;;17.18;25.16
50380;BME280;37474;59.468;18.040;2023-04-20T12:39:41;102989.38;;;16.56;24.97
50380;BME280;37474;59.468;18.040;2023-04-20T12:42:09;102974.88;;;17.31;25.52
50380;BME280;37474;59.468;18.040;2023-04-20T12:44:37;102976.34;;;17.38;24.40
50380;BME280;37474;59.468;18.040;2023-04-20T12:47:05;102973.53;;;17.02;25.76